KFSI/FSI METAR and TAF weather

Enter ICAO airport designator
Station Type Date Time Source
KFSI METAR 2019/06/26 17:56 UTC NOAA

KFSI 261756Z AUTO 16010G19KT M M FEW170 32/24 A3009 RMK AO2 SLP179 T03180238 10318 20216 50002 RVRNO $


Station Type Date Time Source
KFSI Decoded METAR 2019/06/26 17:56 UTC NOAA

Fort Sill, OK, United States (KFSI) 34-36N 098-24W 360M
Jun 26, 2019 - 01:56 PM EDT / 2019.06.26 1756 UTC
Wind: from the SSE (160 degrees) at 12 MPH (10 KT) gusting to 22 MPH (19 KT):0
Sky conditions: mostly clear
Temperature: 89.2 F (31.8 C)
Heat index: 99.0 F (37.2 C):1
Dew Point: 74.8 F (23.8 C)
Relative Humidity: 62%
Pressure (altimeter): 30.09 in. Hg (1018 hPa)
Pressure tendency: 0.01 inches (0.2 hPa) higher than three hours ago
ob: KFSI 261756Z AUTO 16010G19KT M M FEW170 32/24 A3009 RMK AO2 SLP179 T03180238 10318 20216 50002 RVRNO
cycle: 18

Station Type Date Time Source
KFSI TAF 2019/06/26 13:03 UTC NOAA

TAF TAF KFSI 261300Z 2613/2719 18006KT 9999 FEW035 QNH3001INS
BECMG 2615/2616 16012G18KT 9999 SCT055 QNH3000INS
BECMG 2623/2624 17012KT 9999 FEW015 QNH3010INS
BECMG 2715/2716 20012G18KT 9999 FEW023 QNH3010INS TX34/2621Z TN22/2613Z

Example: see airport list